Time;durP1;ratioP1;P1;durP2;ratioP2;P2;SDS_P1;SDS_P2;PMS_P1;PMS_P2;Temp;Humidity;BMP_temperature;BMP_pressure;BME280_temperature;BME280_humidity;BME280_pressure;Samples;Min_cycle;Max_cycle;Signal;HPM_P1;HPM_P2
2021/09/20 00:00:09;;;;;;;;;1.00;1.00;;;;;18.27;51.74;101258.53;5015400;28;45415;-58
2021/09/20 00:02:35;;;;;;;;;2.00;1.25;;;;;18.21;51.57;101261.44;5012256;28;45396;-58
2021/09/20 00:05:00;;;;;;;;;0.25;0.25;;;;;18.13;51.79;101256.41;4999681;28;45536;-58
2021/09/20 00:07:26;;;;;;;;;0.75;0.75;;;;;18.09;52.10;101253.00;5009040;28;47271;-58
2021/09/20 00:09:52;;;;;;;;;1.25;0.75;;;;;18.04;52.07;101257.63;5017962;28;45250;-58
2021/09/20 00:12:17;;;;;;;;;1.00;1.00;;;;;18.00;52.52;101261.31;5009321;28;45248;-58
2021/09/20 00:14:43;;;;;;;;;1.00;1.00;;;;;17.92;52.52;101250.91;5018298;28;45536;-59
2021/09/20 00:17:08;;;;;;;;;3.25;2.00;;;;;17.85;52.78;101252.09;5001103;28;45500;-59
2021/09/20 00:19:33;;;;;;;;;1.00;1.00;;;;;17.80;52.33;101252.25;5001023;28;45223;-59
2021/09/20 00:21:59;;;;;;;;;2.75;0.50;;;;;17.77;52.79;101248.81;5019466;28;45396;-59
2021/09/20 00:24:24;;;;;;;;;3.25;1.75;;;;;17.71;52.68;101252.59;5024714;28;45481;-59
2021/09/20 00:26:50;;;;;;;;;0.50;0.50;;;;;17.67;53.16;101257.16;5011775;28;45789;-59
2021/09/20 00:29:16;;;;;;;;;1.25;1.00;;;;;17.66;53.06;101257.19;5000800;28;45476;-58
2021/09/20 00:31:41;;;;;;;;;1.25;1.25;;;;;17.65;53.01;101255.47;4999815;28;45306;-58
2021/09/20 00:34:06;;;;;;;;;1.75;1.00;;;;;17.61;52.97;101253.81;5014148;28;45383;-58
2021/09/20 00:36:32;;;;;;;;;2.25;1.00;;;;;17.59;53.35;101255.69;5000749;28;45362;-58
2021/09/20 00:38:57;;;;;;;;;2.00;2.00;;;;;17.57;53.53;101254.84;5013006;28;45337;-58
2021/09/20 00:41:22;;;;;;;;;1.00;1.00;;;;;17.54;53.45;101253.19;5020839;28;45234;-58
2021/09/20 00:43:48;;;;;;;;;1.00;1.00;;;;;17.51;53.65;101255.97;5006703;28;45270;-58
2021/09/20 00:46:14;;;;;;;;;1.00;1.00;;;;;17.46;53.29;101261.41;5018789;28;46206;-59
2021/09/20 00:48:40;;;;;;;;;2.50;2.25;;;;;17.44;53.86;101257.94;5018360;28;46348;-59
2021/09/20 00:51:05;;;;;;;;;3.00;2.00;;;;;17.41;53.65;101252.75;5008059;28;45356;-59
2021/09/20 00:53:31;;;;;;;;;1.00;1.00;;;;;17.40;54.00;101255.47;5020223;28;45233;-59
2021/09/20 00:55:56;;;;;;;;;1.00;1.00;;;;;17.34;53.70;101245.91;5020358;28;45217;-59
2021/09/20 00:58:22;;;;;;;;;0.00;0.00;;;;;17.32;54.23;101247.72;5018780;28;45247;-59
2021/09/20 01:00:48;;;;;;;;;3.25;1.50;;;;;17.33;53.71;101253.00;5020414;28;45304;-59
2021/09/20 01:03:13;;;;;;;;;1.00;1.00;;;;;17.33;53.79;101249.47;5020185;28;45350;-59
2021/09/20 01:05:38;;;;;;;;;1.00;1.00;;;;;17.34;53.81;101253.88;5018836;28;45860;-59
2021/09/20 01:08:04;;;;;;;;;0.25;0.25;;;;;17.35;53.49;101248.50;5019840;28;45306;-59
2021/09/20 01:10:30;;;;;;;;;1.00;1.00;;;;;17.37;53.47;101253.75;5020430;28;45254;-58
2021/09/20 01:12:55;;;;;;;;;4.25;1.00;;;;;17.40;53.75;101255.47;5019794;28;45282;-59
2021/09/20 01:15:21;;;;;;;;;2.00;1.00;;;;;17.41;53.65;101252.75;5012608;28;45381;-59
2021/09/20 01:17:46;;;;;;;;;2.00;0.25;;;;;17.44;53.87;101251.78;5014213;28;45300;-59
2021/09/20 01:20:13;;;;;;;;;2.00;1.00;;;;;17.46;53.79;101244.59;5019466;28;45376;-58
2021/09/20 01:22:39;;;;;;;;;2.50;0.00;;;;;17.48;53.53;101243.66;5019633;28;45450;-59
2021/09/20 01:25:09;;;;;;;;;1.50;1.50;;;;;17.49;53.65;101239.19;5019697;28;46377;-59
2021/09/20 01:27:35;;;;;;;;;1.00;1.00;;;;;17.53;53.63;101243.47;5017977;28;45234;-59
2021/09/20 01:30:00;;;;;;;;;3.00;1.00;;;;;17.55;53.65;101239.81;4999972;28;45371;-58
2021/09/20 01:32:26;;;;;;;;;2.00;2.00;;;;;17.57;53.43;101238.91;5000103;28;45270;-59
2021/09/20 01:34:52;;;;;;;;;2.00;1.00;;;;;17.58;53.77;101241.50;5006984;28;45438;-59
2021/09/20 01:37:17;;;;;;;;;3.00;1.25;;;;;17.59;53.65;101235.28;5006095;28;45249;-59
2021/09/20 01:39:43;;;;;;;;;1.50;0.00;;;;;17.61;53.68;101233.44;5000334;28;45334;-59
2021/09/20 01:42:09;;;;;;;;;1.00;1.00;;;;;17.63;53.73;101242.22;4999752;28;45520;-59
2021/09/20 01:44:35;;;;;;;;;0.50;0.00;;;;;17.65;53.77;101239.53;5004529;28;46258;-59
2021/09/20 01:47:01;;;;;;;;;2.00;2.00;;;;;17.59;53.71;101223.78;5019095;28;45378;-59
2021/09/20 01:49:27;;;;;;;;;1.00;1.00;;;;;17.68;53.84;101228.75;4998647;28;45265;-59
2021/09/20 01:51:55;;;;;;;;;1.00;1.00;;;;;17.69;53.68;101231.34;4999517;28;45444;-59
2021/09/20 01:54:21;;;;;;;;;1.00;1.00;;;;;17.72;53.81;101233.03;4999763;28;46313;-58
2021/09/20 01:56:46;;;;;;;;;1.00;1.00;;;;;17.73;53.66;101234.78;4999301;28;45321;-59
2021/09/20 01:59:12;;;;;;;;;2.25;2.25;;;;;17.73;53.91;101231.25;5000087;28;45257;-58
2021/09/20 02:01:37;;;;;;;;;1.25;0.75;;;;;17.76;53.88;101225.81;4999560;28;45472;-58
2021/09/20 02:04:03;;;;;;;;;1.00;1.00;;;;;17.77;53.79;101225.75;4999472;28;46694;-58
2021/09/20 02:06:29;;;;;;;;;3.00;2.00;;;;;17.79;53.82;101228.38;4999376;28;45355;-58
2021/09/20 02:08:55;;;;;;;;;4.50;3.00;;;;;17.80;53.99;101224.81;4999847;28;45334;-58
2021/09/20 02:11:23;;;;;;;;;3.75;1.00;;;;;17.82;53.85;101223.81;5012340;28;45311;-58
2021/09/20 02:13:49;;;;;;;;;1.75;1.75;;;;;17.85;53.75;101225.50;5011292;28;46321;-58
2021/09/20 02:16:15;;;;;;;;;4.00;2.25;;;;;17.85;53.99;101223.69;4999511;28;45676;-58
2021/09/20 02:18:41;;;;;;;;;2.00;2.00;;;;;17.86;53.80;101220.13;4999779;28;45511;-58
2021/09/20 02:21:08;;;;;;;;;4.00;4.00;;;;;17.87;54.13;101219.22;4999273;28;45374;-58
2021/09/20 02:23:35;;;;;;;;;2.25;2.00;;;;;17.85;54.04;101214.88;5014571;28;47320;-58
2021/09/20 02:26:01;;;;;;;;;2.00;2.00;;;;;17.83;54.23;101211.38;5016401;28;45377;-57
2021/09/20 02:28:27;;;;;;;;;4.00;2.75;;;;;17.82;54.20;101222.94;5010227;28;45228;-58
2021/09/20 02:30:52;;;;;;;;;1.50;1.50;;;;;17.79;54.46;101207.13;4999392;28;45464;-58
2021/09/20 02:33:18;;;;;;;;;2.75;2.75;;;;;17.77;54.24;101211.63;5002623;28;46315;-57
2021/09/20 02:35:44;;;;;;;;;1.50;1.50;;;;;17.75;54.21;101219.66;5002788;28;45252;-58
2021/09/20 02:38:10;;;;;;;;;3.00;3.00;;;;;17.76;54.27;101212.53;5002685;28;45319;-58
2021/09/20 02:40:35;;;;;;;;;3.75;3.75;;;;;17.76;54.52;101215.19;5002586;28;45331;-58
2021/09/20 02:43:01;;;;;;;;;3.75;3.00;;;;;17.76;54.30;101216.06;5016957;28;46147;-58
2021/09/20 02:45:26;;;;;;;;;4.00;3.00;;;;;17.75;54.53;101217.00;5026479;28;45348;-58
2021/09/20 02:47:52;;;;;;;;;2.00;2.00;;;;;17.73;54.46;101210.84;5009894;28;45336;-58
2021/09/20 02:50:17;;;;;;;;;2.00;2.00;;;;;17.72;54.37;101211.78;5022297;28;45344;-58
2021/09/20 02:52:43;;;;;;;;;4.75;3.00;;;;;17.70;54.32;101210.97;5021987;28;46295;-59
2021/09/20 02:55:10;;;;;;;;;2.00;2.00;;;;;17.70;54.40;101208.31;5022105;28;45328;-58
2021/09/20 02:57:35;;;;;;;;;2.75;2.75;;;;;17.70;54.41;101219.81;5022200;28;45502;-58
2021/09/20 03:00:01;;;;;;;;;3.00;3.00;;;;;17.71;54.58;101218.03;5020562;28;45489;-57
2021/09/20 03:02:26;;;;;;;;;2.00;2.00;;;;;17.67;54.82;101211.97;5022142;28;45302;-58
2021/09/20 03:04:52;;;;;;;;;3.75;3.25;;;;;17.62;54.37;101203.28;5021864;28;45189;-57
2021/09/20 03:07:17;;;;;;;;;1.25;1.25;;;;;17.70;54.48;101224.28;5022063;28;46469;-58
2021/09/20 03:09:43;;;;;;;;;3.00;3.00;;;;;17.71;54.31;101220.69;5021936;28;45229;-58
2021/09/20 03:12:08;;;;;;;;;3.00;3.00;;;;;17.72;54.51;101214.44;5021770;28;45456;-57
2021/09/20 03:14:34;;;;;;;;;4.00;2.00;;;;;17.73;54.29;101210.00;5021770;28;45326;-58
2021/09/20 03:17:00;;;;;;;;;3.50;3.00;;;;;17.74;54.26;101215.25;5014466;28;45307;-57
2021/09/20 03:19:25;;;;;;;;;1.50;1.50;;;;;17.75;54.41;101219.66;5002044;28;45246;-57
2021/09/20 03:21:50;;;;;;;;;4.25;2.25;;;;;17.77;54.49;101220.44;5001818;28;46042;-58
2021/09/20 03:24:16;;;;;;;;;2.25;1.75;;;;;17.80;54.40;101222.16;5030318;28;45519;-58
2021/09/20 03:26:42;;;;;;;;;2.00;2.00;;;;;17.82;54.47;101221.16;5014062;28;45392;-58
2021/09/20 03:29:08;;;;;;;;;3.50;3.00;;;;;17.84;54.78;101226.44;5001650;28;45329;-58
2021/09/20 03:31:33;;;;;;;;;3.00;3.00;;;;;17.85;54.41;101229.00;5001598;28;45345;-58
2021/09/20 03:33:59;;;;;;;;;4.00;2.75;;;;;17.86;54.43;101222.78;5001759;28;45317;-57
2021/09/20 03:36:24;;;;;;;;;3.50;2.00;;;;;17.89;54.28;101223.59;5001508;28;45278;-58
2021/09/20 03:38:50;;;;;;;;;2.50;2.50;;;;;17.91;54.53;101221.72;5001666;28;45477;-58
2021/09/20 03:41:16;;;;;;;;;3.50;3.00;;;;;17.91;54.48;101224.38;5001499;28;46263;-58
2021/09/20 03:43:41;;;;;;;;;4.00;4.00;;;;;17.92;54.55;101231.44;5000629;28;45172;-58
2021/09/20 03:46:07;;;;;;;;;6.00;4.00;;;;;17.93;54.60;101220.75;5007665;28;45138;-57
2021/09/20 03:48:32;;;;;;;;;2.00;2.00;;;;;17.96;54.57;101226.00;5007612;28;45523;-58
2021/09/20 03:50:58;;;;;;;;;4.00;4.00;;;;;17.98;54.42;101225.94;5024496;28;47299;-57
2021/09/20 03:53:23;;;;;;;;;3.00;2.75;;;;;17.99;54.45;101220.56;5028871;28;45324;-57
2021/09/20 03:55:48;;;;;;;;;3.00;3.00;;;;;18.04;54.73;101220.41;5002407;28;45210;-57
2021/09/20 03:58:14;;;;;;;;;1.50;1.50;;;;;18.05;54.42;101224.78;5012027;28;45351;-57
2021/09/20 04:00:39;;;;;;;;;4.00;3.00;;;;;18.09;54.56;101225.56;5015168;28;46005;-57
2021/09/20 04:03:04;;;;;;;;;3.25;3.00;;;;;18.10;54.53;101227.25;5001269;28;45250;-57
2021/09/20 04:05:30;;;;;;;;;3.25;2.00;;;;;18.12;54.59;101226.28;5001190;28;45468;-58
2021/09/20 04:07:55;;;;;;;;;6.00;3.00;;;;;18.15;54.53;101219.97;5001111;28;45218;-57
2021/09/20 04:10:21;;;;;;;;;1.75;1.75;;;;;18.15;54.47;101228.84;5000769;28;46070;-57
2021/09/20 04:12:46;;;;;;;;;3.00;3.00;;;;;18.17;54.44;101229.63;5012109;28;45358;-57
2021/09/20 04:15:12;;;;;;;;;3.25;3.25;;;;;18.19;54.43;101225.13;5015016;28;45413;-57
2021/09/20 04:17:38;;;;;;;;;2.00;2.00;;;;;18.19;54.45;101227.78;5001196;28;45321;-57
2021/09/20 04:20:05;;;;;;;;;4.00;4.00;;;;;18.19;54.46;101230.44;4996871;28;46143;-57
2021/09/20 04:22:31;;;;;;;;;4.75;3.00;;;;;18.20;54.64;101233.97;5013622;28;45372;-57
2021/09/20 04:24:56;;;;;;;;;4.25;4.25;;;;;18.22;54.44;101233.91;5010898;28;45244;-57
2021/09/20 04:27:22;;;;;;;;;6.00;4.00;;;;;18.21;54.55;101229.50;5007687;28;45238;-56
2021/09/20 04:29:48;;;;;;;;;2.25;2.00;;;;;18.24;54.34;101232.03;5000447;28;46146;-57
2021/09/20 04:32:14;;;;;;;;;3.75;3.25;;;;;18.25;54.56;101232.00;5000967;28;45229;-56
2021/09/20 04:34:39;;;;;;;;;8.00;7.50;;;;;18.28;54.73;101236.34;5000623;28;45432;-57
2021/09/20 04:37:05;;;;;;;;;5.75;5.00;;;;;18.29;54.71;101235.41;5000694;28;45234;-56
2021/09/20 04:39:30;;;;;;;;;6.75;5.75;;;;;18.30;54.53;101239.78;5005551;28;46227;-57
2021/09/20 04:41:56;;;;;;;;;4.25;4.25;;;;;18.29;54.35;101235.41;5008758;28;45365;-56
2021/09/20 04:44:21;;;;;;;;;7.00;5.00;;;;;18.31;54.91;101237.09;5002095;28;45275;-56
2021/09/20 04:46:46;;;;;;;;;4.75;4.75;;;;;18.30;54.45;101231.81;5008771;28;45246;-57
2021/09/20 04:49:12;;;;;;;;;3.75;2.75;;;;;18.33;54.52;101239.69;5005364;28;45842;-57
2021/09/20 04:51:37;;;;;;;;;6.75;4.25;;;;;18.34;54.98;101238.78;5008390;28;45322;-57
2021/09/20 04:54:03;;;;;;;;;5.25;4.50;;;;;18.33;54.88;101232.56;4999903;28;45528;-56
2021/09/20 04:56:28;;;;;;;;;7.00;4.00;;;;;18.34;54.66;101238.78;4999914;28;45297;-56
2021/09/20 04:58:54;;;;;;;;;6.00;4.25;;;;;18.33;54.47;101243.19;4999848;28;47175;-56
2021/09/20 05:01:19;;;;;;;;;4.25;3.25;;;;;18.35;54.95;101241.34;5000394;28;45344;-56
2021/09/20 05:03:44;;;;;;;;;3.50;3.25;;;;;18.34;54.83;101233.44;5010666;28;45336;-56
2021/09/20 05:06:10;;;;;;;;;4.00;2.75;;;;;18.34;54.98;101236.97;5028445;28;45269;-56
2021/09/20 05:08:35;;;;;;;;;6.00;5.75;;;;;18.34;54.99;101249.41;5001322;28;45295;-57
2021/09/20 05:11:01;;;;;;;;;6.50;4.25;;;;;18.33;54.75;101242.34;5000339;28;45274;-57
2021/09/20 05:13:27;;;;;;;;;5.25;4.50;;;;;18.32;55.03;101244.13;5000216;28;45163;-54
2021/09/20 05:15:52;;;;;;;;;5.00;5.00;;;;;18.31;55.00;101247.72;5000060;28;45424;-57
2021/09/20 05:18:17;;;;;;;;;6.50;5.75;;;;;18.30;54.76;101255.75;4999749;28;45464;-53
2021/09/20 05:20:43;;;;;;;;;6.00;4.25;;;;;18.29;54.74;101251.38;5000168;28;45325;-55
2021/09/20 05:23:08;;;;;;;;;4.75;4.75;;;;;18.28;54.98;101241.66;5011859;28;45264;-54
2021/09/20 05:25:34;;;;;;;;;5.00;3.00;;;;;18.28;54.67;101252.31;5014978;28;45287;-57
2021/09/20 05:28:00;;;;;;;;;5.25;4.00;;;;;18.27;54.67;101256.75;5013015;28;47017;-56
2021/09/20 05:30:25;;;;;;;;;4.75;4.75;;;;;18.24;54.65;101253.31;5002237;28;45240;-56
2021/09/20 05:32:51;;;;;;;;;3.00;3.00;;;;;18.28;54.78;101262.94;4999953;28;45685;-49
2021/09/20 05:35:16;;;;;;;;;5.00;4.25;;;;;18.25;55.24;101258.59;5000016;28;45623;-56
2021/09/20 05:37:45;;;;;;;;;5.75;4.50;;;;;18.24;55.01;101251.53;5005870;28;47082;-56
2021/09/20 05:40:11;;;;;;;;;5.25;4.00;;;;;18.26;54.93;101255.00;5029026;28;45308;-54
2021/09/20 05:42:36;;;;;;;;;6.00;5.00;;;;;18.26;55.08;101257.66;5018081;28;45457;-54
2021/09/20 05:45:03;;;;;;;;;4.25;4.25;;;;;18.30;55.36;101251.31;5017772;28;45431;-55
2021/09/20 05:47:28;;;;;;;;;5.25;4.25;;;;;18.31;54.71;101260.16;5015460;28;46081;-53
2021/09/20 05:49:54;;;;;;;;;8.75;5.50;;;;;18.34;54.82;101263.56;4999620;28;45254;-57
2021/09/20 05:52:22;;;;;;;;;4.75;4.75;;;;;18.35;55.03;101256.44;4999595;28;45743;-47
2021/09/20 05:54:47;;;;;;;;;5.50;3.75;;;;;18.35;55.20;101267.06;4999808;28;45338;-47
2021/09/20 05:57:12;;;;;;;;;6.25;4.25;;;;;18.31;55.02;101260.16;4998985;28;45262;-48
2021/09/20 05:59:39;;;;;;;;;4.00;4.00;;;;;18.34;55.33;101270.69;4999904;28;45324;-51
2021/09/20 06:02:04;;;;;;;;;5.25;5.25;;;;;18.33;55.27;101266.28;4999484;28;45361;-49
2021/09/20 06:04:29;;;;;;;;;6.50;5.25;;;;;18.33;55.61;101266.28;5009165;28;45330;-47
2021/09/20 06:06:55;;;;;;;;;9.50;5.50;;;;;18.33;55.54;101267.16;5016136;28;46368;-50
2021/09/20 06:09:22;;;;;;;;;8.25;5.50;;;;;18.33;55.28;101275.13;5001466;28;45282;-48
2021/09/20 06:11:48;;;;;;;;;6.25;6.25;;;;;18.33;55.63;101269.81;5002961;28;45341;-48
2021/09/20 06:14:13;;;;;;;;;4.75;4.75;;;;;18.33;55.31;101272.47;5025366;28;45240;-49
2021/09/20 06:16:38;;;;;;;;;5.25;5.00;;;;;18.33;55.48;101279.59;5019644;28;46043;-46
2021/09/20 06:19:04;;;;;;;;;5.00;4.50;;;;;18.33;55.72;101277.78;5009803;28;45217;-49
2021/09/20 06:21:29;;;;;;;;;5.25;4.75;;;;;18.31;55.72;101281.44;5002631;28;45166;-55
2021/09/20 06:23:55;;;;;;;;;7.25;7.00;;;;;18.32;55.65;101284.03;5004132;28;45386;-54
2021/09/20 06:26:20;;;;;;;;;7.50;6.00;;;;;18.35;55.48;101280.38;5017315;28;45282;-54
2021/09/20 06:28:45;;;;;;;;;5.00;4.25;;;;;18.37;55.57;101289.19;5012160;28;45264;-53
2021/09/20 06:31:11;;;;;;;;;7.00;6.25;;;;;18.38;55.27;101288.25;5015206;28;45635;-54
2021/09/20 06:33:36;;;;;;;;;6.50;6.25;;;;;18.42;55.16;101287.22;5022565;28;45351;-55
2021/09/20 06:36:03;;;;;;;;;7.00;5.00;;;;;18.46;55.56;101293.28;5002732;28;45321;-55
2021/09/20 06:38:29;;;;;;;;;5.25;5.00;;;;;18.49;55.38;101295.84;5002085;28;45532;-55
2021/09/20 06:40:54;;;;;;;;;7.25;5.50;;;;;18.51;55.73;101299.28;5002501;28;45261;-55
2021/09/20 06:43:20;;;;;;;;;7.75;6.50;;;;;18.55;55.57;101300.03;5002341;28;45595;-55
2021/09/20 06:45:45;;;;;;;;;8.75;7.00;;;;;18.58;55.68;101306.13;5002139;28;45912;-54
2021/09/20 06:48:11;;;;;;;;;9.00;6.75;;;;;18.60;55.25;101298.97;5002717;28;45262;-55
2021/09/20 06:50:37;;;;;;;;;11.25;10.75;;;;;18.66;55.24;101305.81;5002406;28;45444;-55
2021/09/20 06:53:02;;;;;;;;;8.75;8.25;;;;;18.68;55.67;101311.97;5002221;28;45417;-54
2021/09/20 06:55:28;;;;;;;;;11.50;9.50;;;;;18.71;55.60;101310.97;5000792;28;46053;-55
2021/09/20 06:57:59;;;;;;;;;12.25;9.75;;;;;18.75;55.77;101317.91;5010464;28;46147;-55
2021/09/20 07:00:25;;;;;;;;;10.50;8.50;;;;;18.79;55.11;101314.19;5017380;28;45327;-55
2021/09/20 07:02:51;;;;;;;;;11.50;9.50;;;;;18.83;55.07;101321.13;5017292;28;45272;-55
2021/09/20 07:05:16;;;;;;;;;17.25;16.25;;;;;18.87;55.32;101321.84;5018691;28;46316;-55
2021/09/20 07:07:42;;;;;;;;;16.00;13.25;;;;;18.90;55.62;101333.28;5021836;28;45238;-55
2021/09/20 07:10:08;;;;;;;;;64.25;52.00;;;;;18.92;55.42;101326.13;5021860;28;45292;-55
2021/09/20 07:12:33;;;;;;;;;62.25;51.50;;;;;18.97;55.03;101332.13;5021988;28;45221;-55
2021/09/20 07:14:59;;;;;;;;;62.00;50.00;;;;;19.02;55.33;101326.63;5003146;28;45463;-54
2021/09/20 07:17:24;;;;;;;;;17.25;15.00;;;;;19.05;55.36;101330.97;5012032;28;45295;-55
2021/09/20 07:19:49;;;;;;;;;134.50;129.00;;;;;19.07;55.59;101324.63;5021606;28;45306;-55
2021/09/20 07:22:15;;;;;;;;;34.00;32.75;;;;;19.10;55.40;101332.50;5021701;28;45300;-55
2021/09/20 07:24:40;;;;;;;;;243.33;230.00;;;;;19.14;55.38;101333.22;5017880;28;45238;-55
2021/09/20 07:27:06;;;;;;;;;16.75;14.75;;;;;19.17;55.39;101344.63;5001925;28;45314;-55
2021/09/20 07:29:31;;;;;;;;;16.00;14.25;;;;;19.21;55.45;101336.53;5000553;28;45410;-55
2021/09/20 07:31:57;;;;;;;;;14.25;13.00;;;;;19.24;55.42;101339.06;5014215;28;45307;-55
2021/09/20 07:34:22;;;;;;;;;13.50;12.50;;;;;19.27;55.71;101339.81;5001060;28;46960;-55
2021/09/20 07:36:47;;;;;;;;;20.00;15.75;;;;;19.32;55.66;101344.94;5000180;28;45350;-55
2021/09/20 07:39:13;;;;;;;;;13.50;11.25;;;;;19.35;55.73;101347.47;5020503;28;45364;-55
2021/09/20 07:41:38;;;;;;;;;20.00;15.75;;;;;19.38;55.49;101343.81;5021313;28;45573;-55
2021/09/20 07:44:04;;;;;;;;;15.75;15.00;;;;;19.41;55.74;101339.22;5021199;28;46272;-56
2021/09/20 07:46:29;;;;;;;;;17.25;14.00;;;;;19.46;55.72;101347.03;5020075;28;45320;-56
2021/09/20 07:48:54;;;;;;;;;18.00;15.50;;;;;19.51;55.68;101349.50;5021325;28;45493;-56
2021/09/20 07:51:21;;;;;;;;;18.75;16.75;;;;;19.53;55.27;101345.81;5021154;28;45296;-56
2021/09/20 07:53:47;;;;;;;;;13.25;12.75;;;;;19.59;55.52;101345.56;5021107;28;46362;-55
2021/09/20 07:56:12;;;;;;;;;19.25;16.50;;;;;19.54;55.57;101339.56;5021232;28;45238;-56
2021/09/20 07:58:39;;;;;;;;;23.50;20.75;;;;;19.66;55.16;101351.53;5020812;28;45423;-56
2021/09/20 08:01:05;;;;;;;;;18.50;17.00;;;;;19.70;55.28;101354.91;5021223;28;45657;-55
2021/09/20 08:03:30;;;;;;;;;17.50;13.75;;;;;19.71;55.39;101349.53;5019462;28;45542;-55
2021/09/20 08:05:56;;;;;;;;;15.25;15.25;;;;;19.71;55.58;101346.88;5021168;28;45243;-55
2021/09/20 08:08:22;;;;;;;;;13.25;13.25;;;;;19.80;55.54;101346.44;5020926;28;45338;-56
2021/09/20 08:10:49;;;;;;;;;18.00;16.25;;;;;19.84;55.36;101357.88;5020939;28;45465;-54
2021/09/20 08:13:15;;;;;;;;;15.50;13.25;;;;;19.89;55.72;101358.56;5020634;28;46242;-57
2021/09/20 08:15:42;;;;;;;;;16.00;14.00;;;;;19.93;55.19;101353.97;5020877;28;45499;-56
2021/09/20 08:18:08;;;;;;;;;15.50;14.25;;;;;20.00;55.73;101363.44;5020953;28;45213;-56
2021/09/20 08:20:34;;;;;;;;;14.25;14.25;;;;;20.03;55.30;101362.44;5020780;28;45317;-55
2021/09/20 08:22:59;;;;;;;;;18.50;16.00;;;;;20.06;55.52;101365.84;5020425;28;45961;-56
2021/09/20 08:25:25;;;;;;;;;17.25;15.50;;;;;20.10;55.64;101359.41;5006978;28;45854;-56
2021/09/20 08:27:51;;;;;;;;;21.25;17.00;;;;;20.16;55.33;101365.41;5000867;28;45241;-61
2021/09/20 08:30:19;;;;;;;;;14.00;14.00;;;;;20.21;55.78;101371.41;5000529;28;45609;-56
2021/09/20 08:32:44;;;;;;;;;13.00;11.50;;;;;20.23;55.10;101367.72;5018119;28;48295;-56
2021/09/20 08:35:11;;;;;;;;;15.25;12.00;;;;;20.25;55.09;101368.53;5016017;28;45363;-56
2021/09/20 08:37:36;;;;;;;;;18.25;13.50;;;;;20.32;55.50;101378.94;5006349;28;45364;-56
2021/09/20 08:40:04;;;;;;;;;15.25;12.50;;;;;20.33;55.35;101381.53;5020386;28;45315;-55
2021/09/20 08:42:29;;;;;;;;;13.50;11.50;;;;;20.32;55.53;101369.13;5020181;28;45233;-56
2021/09/20 08:44:55;;;;;;;;;13.00;12.00;;;;;20.43;55.42;101379.31;5020413;28;45287;-56
2021/09/20 08:47:20;;;;;;;;;12.50;12.00;;;;;20.48;54.98;101381.75;5020523;28;45476;-56
2021/09/20 08:49:48;;;;;;;;;16.00;14.50;;;;;20.53;55.00;101377.09;5020464;28;45237;-55
2021/09/20 08:52:13;;;;;;;;;14.00;13.50;;;;;20.56;55.45;101377.81;5019913;28;46299;-55
2021/09/20 08:54:38;;;;;;;;;13.75;11.50;;;;;20.59;54.99;101382.13;5020289;28;45309;-55
2021/09/20 08:57:04;;;;;;;;;12.25;11.25;;;;;20.67;55.25;101387.13;5020078;28;45443;-55
2021/09/20 08:59:30;;;;;;;;;10.50;10.50;;;;;20.69;55.35;101391.47;5020302;28;45273;-56
2021/09/20 09:01:57;;;;;;;;;13.00;13.00;;;;;20.75;55.28;101398.34;5020121;28;45301;-54
2021/09/20 09:04:34;;;;;;;;;11.25;11.00;;;;;20.79;55.18;101394.59;5020100;28;45261;-55
2021/09/20 09:07:02;;;;;;;;;14.00;14.00;;;;;20.82;55.09;101404.25;5020170;28;45250;-54
2021/09/20 09:09:43;;;;;;;;;13.50;11.50;;;;;20.86;55.10;101411.22;5020072;28;45325;-55
2021/09/20 09:12:17;;;;;;;;;15.75;14.75;;;;;20.89;55.05;101406.59;5019867;28;46309;-56
2021/09/20 09:14:53;;;;;;;;;15.50;13.50;;;;;20.93;55.11;101408.19;5019855;28;45238;-54
2021/09/20 09:17:31;;;;;;;;;14.25;12.25;;;;;20.98;54.47;101405.28;5020082;28;45411;-55
2021/09/20 09:20:02;;;;;;;;;16.75;13.75;;;;;21.03;54.72;101416.63;5019831;28;45346;-55
2021/09/20 09:22:44;;;;;;;;;13.50;12.50;;;;;21.07;54.40;101407.50;5019540;28;45367;-56
2021/09/20 09:25:34;;;;;;;;;12.25;12.25;;;;;21.12;54.66;101418.00;5009843;28;45487;-55
2021/09/20 09:28:10;;;;;;;;;16.25;14.75;;;;;21.17;55.08;101418.63;4994364;28;45366;-56
2021/09/20 09:30:41;;;;;;;;;16.00;14.75;;;;;21.22;54.75;101413.03;5001177;28;45253;-56
2021/09/20 09:33:19;;;;;;;;;14.00;12.50;;;;;21.27;54.25;101419.06;5018296;28;46939;-55
2021/09/20 09:35:47;;;;;;;;;12.25;11.50;;;;;21.32;54.66;101416.16;5019595;28;45197;-56
2021/09/20 09:38:13;;;;;;;;;11.25;11.25;;;;;21.37;54.31;101423.00;5018319;28;45387;-55
2021/09/20 09:40:56;;;;;;;;;15.75;11.75;;;;;21.40;54.70;101419.31;5019418;28;45330;-56
2021/09/20 09:43:25;;;;;;;;;11.75;9.75;;;;;21.49;54.08;101426.03;5023115;28;46200;-57
2021/09/20 09:45:51;;;;;;;;;9.50;9.50;;;;;21.52;54.49;101421.41;5023092;28;45258;-56
2021/09/20 09:48:20;;;;;;;;;13.75;13.50;;;;;21.59;54.48;101427.31;5023254;28;45371;-56
2021/09/20 09:50:49;;;;;;;;;13.75;12.25;;;;;21.65;54.01;101424.34;5023058;28;45478;-55
2021/09/20 09:53:38;;;;;;;;;16.25;12.25;;;;;21.70;54.16;101424.97;5022662;28;45640;-55
2021/09/20 09:56:18;;;;;;;;;9.00;9.00;;;;;21.77;54.20;101430.03;5023061;28;45329;-56
2021/09/20 09:59:09;;;;;;;;;12.25;12.25;;;;;21.81;54.02;101426.25;5021537;28;45440;-56
2021/09/20 10:01:40;;;;;;;;;13.25;11.75;;;;;21.85;54.42;101428.69;5020622;28;45332;-56
2021/09/20 10:04:30;;;;;;;;;10.50;10.25;;;;;21.89;54.40;101430.25;5022799;28;47216;-56
2021/09/20 10:06:58;;;;;;;;;12.25;11.25;;;;;21.93;54.03;101428.28;5022626;28;45266;-56
2021/09/20 10:09:28;;;;;;;;;12.25;12.25;;;;;21.97;54.15;101429.84;5022978;28;45380;-56
2021/09/20 10:11:56;;;;;;;;;11.00;10.00;;;;;22.01;54.00;101431.47;5022717;28;45519;-54
2021/09/20 10:14:24;;;;;;;;;11.75;11.75;;;;;22.03;53.90;101434.91;5022676;28;45379;-56
2021/09/20 10:16:53;;;;;;;;;12.75;10.50;;;;;22.07;53.88;101428.47;5022780;28;45349;-56
2021/09/20 10:19:19;;;;;;;;;13.50;12.25;;;;;22.12;54.01;101435.38;5022706;28;45318;-55
2021/09/20 10:21:44;;;;;;;;;14.50;12.50;;;;;22.14;53.83;101425.44;5022500;28;45242;-56
2021/09/20 10:24:10;;;;;;;;;72.00;60.50;;;;;22.17;54.12;101428.81;5021160;28;46057;-55
2021/09/20 10:26:35;;;;;;;;;12.00;10.00;;;;;22.21;53.37;101433.09;5002762;28;45322;-55
2021/09/20 10:29:04;;;;;;;;;46.75;38.50;;;;;22.26;53.75;101431.97;5002605;28;45382;-54
2021/09/20 10:31:31;;;;;;;;;9.75;9.75;;;;;22.28;53.63;101430.09;5011527;28;45328;-56
2021/09/20 10:34:21;;;;;;;;;11.50;11.25;;;;;22.32;53.54;101435.19;5020991;28;46409;-55
2021/09/20 10:36:55;;;;;;;;;7.75;7.75;;;;;22.34;53.84;101427.97;5022182;28;45341;-56
2021/09/20 10:39:54;;;;;;;;;11.75;10.00;;;;;22.39;53.14;101427.75;5021413;28;45350;-56
2021/09/20 10:42:35;;;;;;;;;9.25;7.00;;;;;22.42;53.79;101437.44;4995236;28;45302;-55
2021/09/20 10:45:03;;;;;;;;;11.00;10.00;;;;;22.44;53.63;101435.53;5002234;28;46898;-55
2021/09/20 10:47:44;;;;;;;;;14.50;10.50;;;;;22.44;53.51;101435.53;5001071;28;45401;-54
2021/09/20 10:50:10;;;;;;;;;14.25;11.00;;;;;22.48;53.55;101439.78;5002336;28;45472;-54
2021/09/20 10:52:35;;;;;;;;;12.50;12.50;;;;;22.49;53.34;101441.50;5002188;28;45325;-54
2021/09/20 10:55:03;;;;;;;;;9.00;9.00;;;;;22.51;53.16;101437.78;5002215;28;46088;-54
2021/09/20 10:57:29;;;;;;;;;12.25;11.00;;;;;22.53;53.02;101443.94;5002265;28;45495;-54
2021/09/20 11:00:20;;;;;;;;;13.25;13.25;;;;;22.53;53.29;101441.25;5002181;28;45614;-54
2021/09/20 11:02:47;;;;;;;;;14.75;13.50;;;;;22.54;52.97;101436.75;5002161;28;45474;-55
2021/09/20 11:05:12;;;;;;;;;12.25;12.25;;;;;22.56;52.94;101438.44;5001937;28;45366;-55
2021/09/20 11:07:51;;;;;;;;;13.50;13.00;;;;;22.55;52.96;101434.00;5001847;28;45476;-55
2021/09/20 11:10:28;;;;;;;;;17.25;15.25;;;;;22.58;52.78;101443.69;5010358;28;45376;-55
2021/09/20 11:13:02;;;;;;;;;20.00;20.00;;;;;22.59;52.99;101444.53;5021691;28;45270;-54
2021/09/20 11:15:38;;;;;;;;;14.50;14.50;;;;;22.60;52.93;101435.56;5021698;28;46941;-55
2021/09/20 11:18:03;;;;;;;;;15.50;11.75;;;;;22.60;53.05;101439.09;5001215;28;45291;-57